Time;durP1;ratioP1;P1;durP2;ratioP2;P2;SDS_P1;SDS_P2;PMS_P1;PMS_P2;Temp;Humidity;BMP_temperature;BMP_pressure;BME280_temperature;BME280_humidity;BME280_pressure;Samples;Min_cycle;Max_cycle;Signal;HPM_P1;HPM_P2
2023/05/01 00:01:46;;;;;;;4.20;1.90;;;;;;;11.63;100.00;99659.42;104738;1269;76789;-57
2023/05/01 00:04:13;;;;;;;6.80;2.60;;;;;;;11.63;100.00;99654.36;104771;1270;68213;-57
2023/05/01 00:06:41;;;;;;;5.90;1.90;;;;;;;11.64;100.00;99651.98;104743;1266;75525;-57
2023/05/01 00:09:08;;;;;;;5.90;2.30;;;;;;;11.64;100.00;99652.52;104878;1265;64199;-59
2023/05/01 00:11:36;;;;;;;5.40;2.40;;;;;;;11.64;100.00;99650.46;104623;1270;61443;-59
2023/05/01 00:14:03;;;;;;;8.30;2.90;;;;;;;11.64;100.00;99651.84;104737;1270;76124;-59
2023/05/01 00:16:31;;;;;;;5.90;3.00;;;;;;;11.62;100.00;99648.40;104836;1265;69559;-57
2023/05/01 00:18:58;;;;;;;9.00;2.90;;;;;;;11.61;100.00;99652.80;104998;1269;74394;-61
2023/05/01 00:21:27;;;;;;;5.40;2.70;;;;;;;11.59;100.00;99658.61;104895;1270;63756;-56
2023/05/01 00:23:54;;;;;;;7.70;3.10;;;;;;;11.56;100.00;99657.83;104997;1270;61538;-56
2023/05/01 00:26:21;;;;;;;4.70;2.70;;;;;;;11.55;100.00;99661.55;105031;1268;76550;-56
2023/05/01 00:28:49;;;;;;;5.90;2.30;;;;;;;11.54;100.00;99658.43;104996;1270;68360;-56
2023/05/01 00:31:17;;;;;;;5.60;2.50;;;;;;;11.52;100.00;99647.70;105039;1265;73767;-61
2023/05/01 00:33:45;;;;;;;9.90;3.60;;;;;;;11.50;100.00;99647.48;104615;1271;64528;-56
2023/05/01 00:36:12;;;;;;;7.10;3.30;;;;;;;11.48;100.00;99648.29;104849;1271;61737;-57
2023/05/01 00:38:39;;;;;;;8.60;2.80;;;;;;;11.44;100.00;99646.29;104888;1265;76356;-57
2023/05/01 00:41:06;;;;;;;6.60;2.50;;;;;;;11.38;100.00;99639.39;105038;1270;68557;-58
2023/05/01 00:43:35;;;;;;;6.30;2.10;;;;;;;11.37;100.00;99636.41;104359;1268;75385;-57
2023/05/01 00:46:02;;;;;;;3.90;2.10;;;;;;;11.33;100.00;99637.46;104799;1265;64901;-56
2023/05/01 00:48:30;;;;;;;4.60;2.20;;;;;;;11.30;100.00;99634.79;104777;1265;61774;-56
2023/05/01 00:50:57;;;;;;;6.20;1.90;;;;;;;11.28;100.00;99641.32;104902;1265;76710;-58
2023/05/01 00:53:25;;;;;;;4.80;2.30;;;;;;;11.26;100.00;99637.69;104927;1270;70384;-62
2023/05/01 00:55:53;;;;;;;6.60;2.30;;;;;;;11.25;100.00;99630.25;104811;1270;75588;-56
2023/05/01 00:58:20;;;;;;;4.60;2.50;;;;;;;11.24;100.00;99631.63;104676;1280;63146;-56
2023/05/01 01:00:48;;;;;;;6.20;2.50;;;;;;;11.23;100.00;99637.28;104932;1267;61826;-56
2023/05/01 01:03:15;;;;;;;5.50;2.60;;;;;;;11.22;100.00;99641.58;104291;1273;77049;-56
2023/05/01 01:05:52;;;;;;;4.60;2.30;;;;;;;11.21;100.00;99642.73;104799;1270;68681;-62
2023/05/01 01:08:22;;;;;;;6.30;2.60;;;;;;;11.21;100.00;99641.68;104684;1265;75191;-56
2023/05/01 01:11:07;;;;;;;5.50;2.10;;;;;;;11.21;100.00;99634.71;104628;1265;62936;-61
2023/05/01 01:13:37;;;;;;;5.00;2.60;;;;;;;11.20;100.00;99638.36;104612;1265;62704;-57
2023/05/01 01:16:22;;;;;;;6.00;2.20;;;;;;;11.19;100.00;99639.90;104549;1271;76542;-56
2023/05/01 01:18:55;;;;;;;5.20;2.20;;;;;;;11.19;100.00;99647.12;104739;1271;68693;-58
2023/05/01 01:21:27;;;;;;;7.10;1.90;;;;;;;11.20;100.00;99648.04;104471;1270;75163;-55
2023/05/01 01:24:09;;;;;;;4.70;2.30;;;;;;;11.23;100.00;99650.53;104731;1270;61522;-56
2023/05/01 01:26:51;;;;;;;7.40;2.10;;;;;;;11.25;100.00;99653.86;104889;1265;61905;-57
2023/05/01 01:29:27;;;;;;;4.70;1.70;;;;;;;11.25;100.00;99650.56;104661;1273;76993;-56
2023/05/01 01:32:01;;;;;;;5.50;1.60;;;;;;;11.28;100.00;99653.65;104484;1272;68493;-58
2023/05/01 01:34:48;;;;;;;3.90;1.40;;;;;;;11.33;100.00;99659.39;104877;1270;75421;-63
2023/05/01 01:37:19;;;;;;;4.20;1.60;;;;;;;11.40;100.00;99659.46;104477;1268;61506;-56
2023/05/01 01:39:56;;;;;;;5.30;1.60;;;;;;;11.41;100.00;99657.26;104694;1268;63376;-56
2023/05/01 01:42:25;;;;;;;6.50;1.70;;;;;;;11.40;100.00;99655.73;104830;1265;76213;-57
2023/05/01 01:44:59;;;;;;;4.90;1.80;;;;;;;11.32;100.00;99654.89;104710;1265;69584;-56
2023/05/01 01:47:30;;;;;;;4.80;2.00;;;;;;;11.29;100.00;99648.27;104874;1271;75543;-62
2023/05/01 01:49:59;;;;;;;;;;;;;;;11.27;100.00;99648.20;104874;1272;63093;-61
2023/05/01 01:52:26;;;;;;;6.10;2.40;;;;;;;11.24;100.00;99645.11;104522;1265;63049;-57
2023/05/01 01:55:04;;;;;;;5.20;1.80;;;;;;;11.21;100.00;99648.31;104595;1266;74883;-56
2023/05/01 01:57:31;;;;;;;5.00;2.10;;;;;;;11.17;100.00;99649.05;104435;1271;70546;-56
2023/05/01 01:59:58;;;;;;;7.20;1.90;;;;;;;11.13;100.00;99656.79;104657;1267;74994;-56
2023/05/01 02:02:26;;;;;;;6.00;2.50;;;;;;;11.10;100.00;99661.28;104600;1268;64513;-57
2023/05/01 02:04:55;;;;;;;6.30;1.90;;;;;;;11.05;100.00;99660.85;104810;1270;61688;-56
2023/05/01 02:07:23;;;;;;;6.20;2.20;;;;;;;11.02;100.00;99661.23;104797;1273;75979;-55
2023/05/01 02:09:50;;;;;;;6.00;2.60;;;;;;;11.00;100.00;99660.56;104198;1273;69085;-61
2023/05/01 02:12:17;;;;;;;6.80;2.80;;;;;;;10.99;100.00;99659.20;104403;1275;73877;-56
2023/05/01 02:14:44;;;;;;;8.50;3.60;;;;;;;11.00;100.00;99661.20;104659;1265;64581;-57
2023/05/01 02:17:12;;;;;;;5.50;2.80;;;;;;;11.01;100.00;99665.73;104737;1281;61518;-56
2023/05/01 02:19:39;;;;;;;8.60;3.00;;;;;;;11.01;100.00;99671.23;104608;1273;76207;-56
2023/05/01 02:22:06;;;;;;;7.00;3.30;;;;;;;11.02;100.00;99669.14;104406;1271;68481;-57
2023/05/01 02:24:34;;;;;;;6.00;2.70;;;;;;;11.03;100.00;99671.69;104745;1274;74173;-57
2023/05/01 02:27:05;;;;;;;6.70;3.60;;;;;;;11.06;100.00;99673.11;104931;1265;62015;-60
2023/05/01 02:29:33;;;;;;;7.40;3.90;;;;;;;11.08;100.00;99675.41;104346;1273;62696;-57
2023/05/01 02:32:00;;;;;;;6.00;3.20;;;;;;;11.10;100.00;99680.02;104811;1271;76211;-57
2023/05/01 02:34:27;;;;;;;7.60;3.70;;;;;;;11.11;100.00;99684.81;104778;1267;69887;-57
2023/05/01 02:36:55;;;;;;;7.20;3.90;;;;;;;11.14;100.00;99681.08;104775;1271;75024;-61
2023/05/01 02:39:22;;;;;;;8.30;3.90;;;;;;;11.16;100.00;99681.42;104839;1268;61925;-57
2023/05/01 02:41:50;;;;;;;7.70;4.20;;;;;;;11.21;100.00;99684.80;104437;1266;62530;-57
2023/05/01 02:44:17;;;;;;;9.70;5.00;;;;;;;11.18;100.00;99686.73;105000;1266;76233;-61
2023/05/01 02:46:44;;;;;;;8.00;4.00;;;;;;;11.25;100.00;99686.54;104423;1282;69321;-57
2023/05/01 02:49:12;;;;;;;9.10;3.90;;;;;;;11.28;100.00;99687.77;104790;1272;74347;-58
2023/05/01 02:51:39;;;;;;;7.40;3.90;;;;;;;11.29;100.00;99689.20;104898;1270;64057;-57
2023/05/01 02:54:07;;;;;;;8.20;3.80;;;;;;;11.29;100.00;99691.83;104684;1270;61728;-57
2023/05/01 02:56:34;;;;;;;7.20;3.90;;;;;;;11.31;100.00;99696.55;104701;1271;76412;-61
2023/05/01 02:59:02;;;;;;;7.70;3.40;;;;;;;11.33;100.00;99700.10;105000;1267;69648;-63
2023/05/01 03:01:29;;;;;;;9.40;4.70;;;;;;;11.35;100.00;99703.14;104754;1271;75552;-59
2023/05/01 03:03:57;;;;;;;8.00;4.60;;;;;;;11.39;100.00;99702.42;104648;1270;64803;-55
2023/05/01 03:06:26;;;;;;;7.10;4.50;;;;;;;11.44;100.00;99703.66;105023;1271;62582;-55
2023/05/01 03:08:53;;;;;;;7.30;4.50;;;;;;;11.49;100.00;99704.81;104519;1270;75942;-62
2023/05/01 03:11:21;;;;;;;7.70;4.80;;;;;;;11.55;100.00;99706.34;104687;1267;68282;-58
2023/05/01 03:13:48;;;;;;;6.40;4.70;;;;;;;11.59;100.00;99707.90;104915;1270;74166;-58
2023/05/01 03:16:15;;;;;;;7.00;3.90;;;;;;;11.64;100.00;99709.49;104718;1270;63183;-57
2023/05/01 03:18:42;;;;;;;10.00;5.20;;;;;;;11.69;100.00;99709.09;104865;1266;62895;-58
2023/05/01 03:21:11;;;;;;;6.40;4.30;;;;;;;11.76;100.00;99713.58;105054;1265;76348;-64
2023/05/01 03:23:39;;;;;;;6.70;4.80;;;;;;;11.84;100.00;99719.53;104647;1270;68525;-57
2023/05/01 03:26:06;;;;;;;8.40;5.50;;;;;;;11.88;100.00;99722.59;104669;1267;74351;-57
2023/05/01 03:28:33;;;;;;;7.30;5.30;;;;;;;11.91;100.00;99721.75;104714;1270;63569;-60
2023/05/01 03:31:01;;;;;;;7.30;5.10;;;;;;;11.96;100.00;99721.98;104458;1269;61541;-61
2023/05/01 03:33:29;;;;;;;8.40;5.00;;;;;;;12.01;100.00;99722.48;104705;1272;76160;-57
2023/05/01 03:36:04;;;;;;;8.20;5.50;;;;;;;12.07;100.00;99724.95;104775;1268;70001;-58
2023/05/01 03:38:32;;;;;;;8.60;5.10;;;;;;;12.13;100.00;99725.61;104647;1271;74261;-63
2023/05/01 03:41:08;;;;;;;6.90;4.80;;;;;;;12.16;100.00;99723.48;104532;1270;63334;-58
2023/05/01 03:44:02;;;;;;;10.80;4.80;;;;;;;12.16;100.00;99720.07;104427;1270;62999;-59
2023/05/01 03:46:41;;;;;;;8.80;4.10;;;;;;;12.15;100.00;99718.98;104512;1270;74943;-57
2023/05/01 03:49:10;;;;;;;11.70;5.10;;;;;;;12.15;100.00;99719.90;104860;1280;68291;-58
2023/05/01 03:51:42;;;;;;;8.70;5.10;;;;;;;12.16;100.00;99720.27;104800;1270;74891;-56
2023/05/01 03:54:09;;;;;;;8.50;4.50;;;;;;;12.17;100.00;99722.06;105047;1271;61590;-61
2023/05/01 03:56:57;;;;;;;7.50;4.30;;;;;;;12.21;100.00;99723.13;105034;1270;61871;-58
2023/05/01 03:59:24;;;;;;;7.50;4.50;;;;;;;12.24;100.00;99726.95;105224;1266;76257;-57
2023/05/01 04:01:52;;;;;;;6.40;4.70;;;;;;;12.32;100.00;99721.72;104563;1272;69746;-59
2023/05/01 04:04:19;;;;;;;9.20;4.50;;;;;;;12.35;100.00;99719.02;104496;1267;74936;-58
2023/05/01 04:06:52;;;;;;;14.40;5.10;;;;;;;12.38;100.00;99717.04;104993;1270;63331;-56
2023/05/01 04:09:19;;;;;;;9.50;4.50;;;;;;;12.41;100.00;99715.66;104695;1268;62845;-57
2023/05/01 04:11:46;;;;;;;8.60;4.30;;;;;;;12.44;100.00;99715.25;105226;1269;76269;-60
2023/05/01 04:14:15;;;;;;;6.00;3.60;;;;;;;12.48;100.00;99713.34;104523;1272;69874;-58
2023/05/01 04:16:42;;;;;;;6.80;3.60;;;;;;;12.54;100.00;99710.34;105115;1267;75320;-58
2023/05/01 04:19:09;;;;;;;7.10;3.90;;;;;;;12.61;100.00;99711.54;104677;1270;61659;-58
2023/05/01 04:21:40;;;;;;;6.40;3.80;;;;;;;12.69;100.00;99710.13;104763;1272;61430;-58
2023/05/01 04:24:08;;;;;;;9.50;4.00;;;;;;;12.80;100.00;99713.33;104937;1270;75312;-60
2023/05/01 04:26:35;;;;;;;8.00;3.70;;;;;;;12.91;100.00;99715.84;104704;1271;69177;-58
2023/05/01 04:29:02;;;;;;;5.90;3.30;;;;;;;13.08;100.00;99718.73;104508;1271;73438;-56
2023/05/01 04:31:29;;;;;;;7.40;4.00;;;;;;;13.22;100.00;99720.83;104736;1267;64640;-55
2023/05/01 04:33:57;;;;;;;7.10;4.50;;;;;;;13.33;100.00;99718.86;104819;1272;61730;-60
2023/05/01 04:36:24;;;;;;;6.50;3.50;;;;;;;13.47;100.00;99719.11;104832;1270;76726;-57
2023/05/01 04:38:51;;;;;;;5.70;4.00;;;;;;;13.58;100.00;99723.55;104498;1270;69342;-56
2023/05/01 04:41:18;;;;;;;7.80;3.60;;;;;;;13.67;100.00;99716.02;104817;1269;73844;-56
2023/05/01 04:43:46;;;;;;;7.40;3.30;;;;;;;13.77;100.00;99718.39;104893;1274;63359;-63
2023/05/01 04:46:16;;;;;;;6.90;3.60;;;;;;;13.87;100.00;99720.65;104679;1268;62468;-59
2023/05/01 04:48:43;;;;;;;6.60;3.20;;;;;;;13.97;100.00;99723.49;104638;1273;76264;-57
2023/05/01 04:51:10;;;;;;;5.50;3.00;;;;;;;14.14;100.00;99724.60;104658;1271;69319;-57
2023/05/01 04:53:38;;;;;;;6.40;2.80;;;;;;;14.26;100.00;99723.30;104671;1271;75681;-57
2023/05/01 04:56:09;;;;;;;11.20;4.60;;;;;;;14.39;100.00;99722.14;104697;1265;65225;-56
2023/05/01 04:58:37;;;;;;;5.80;3.40;;;;;;;14.51;100.00;99719.41;104646;1268;60594;-58
2023/05/01 05:01:07;;;;;;;4.90;3.10;;;;;;;14.61;100.00;99720.09;104591;1272;76181;-56
2023/05/01 05:03:35;;;;;;;7.30;3.00;;;;;;;14.69;100.00;99718.30;105182;1267;69561;-58
2023/05/01 05:06:03;;;;;;;4.60;2.70;;;;;;;14.71;100.00;99718.79;104854;1269;74020;-58
2023/05/01 05:08:31;;;;;;;6.60;2.90;;;;;;;14.70;100.00;99718.04;104716;1272;63349;-58
2023/05/01 05:11:07;;;;;;;5.60;3.20;;;;;;;14.68;100.00;99715.92;104475;1267;61312;-58
2023/05/01 05:13:53;;;;;;;4.10;2.20;;;;;;;14.60;100.00;99715.40;104688;1270;75283;-58
2023/05/01 05:16:20;;;;;;;7.60;3.00;;;;;;;14.51;100.00;99718.13;104846;1270;68082;-56
2023/05/01 05:18:47;;;;;;;7.30;2.90;;;;;;;14.45;100.00;99719.07;104696;1279;75512;-56
2023/05/01 05:21:15;;;;;;;7.70;2.90;;;;;;;14.48;100.00;99712.86;104778;1267;62552;-56
2023/05/01 05:23:46;;;;;;;5.30;3.10;;;;;;;14.50;100.00;99712.45;104416;1267;62603;-60
2023/05/01 05:26:14;;;;;;;9.20;3.50;;;;;;;14.52;100.00;99712.10;104741;1270;76374;-59
2023/05/01 05:28:41;;;;;;;5.30;3.20;;;;;;;14.57;100.00;99715.06;104805;1275;69959;-59
2023/05/01 05:31:08;;;;;;;8.00;3.00;;;;;;;14.56;100.00;99716.09;104758;1267;74904;-60
2023/05/01 05:33:35;;;;;;;7.20;2.50;;;;;;;14.59;100.00;99711.45;104855;1267;64345;-60
2023/05/01 05:36:03;;;;;;;6.70;3.00;;;;;;;14.64;100.00;99714.86;104948;1266;61603;-61
2023/05/01 05:38:34;;;;;;;5.10;3.00;;;;;;;14.68;100.00;99715.61;104748;1270;76608;-58
2023/05/01 05:41:02;;;;;;;5.80;3.00;;;;;;;14.74;100.00;99714.39;104881;1274;69925;-56
2023/05/01 05:43:29;;;;;;;4.00;2.00;;;;;;;14.78;100.00;99717.81;104912;1270;75291;-56
2023/05/01 05:45:57;;;;;;;4.30;1.90;;;;;;;14.77;100.00;99716.13;104499;1267;64439;-62
2023/05/01 05:48:25;;;;;;;3.60;2.20;;;;;;;14.72;100.00;99713.45;104474;1267;63138;-58
2023/05/01 05:50:52;;;;;;;7.80;3.00;;;;;;;14.65;100.00;99714.68;104785;1267;76482;-59
2023/05/01 05:53:19;;;;;;;9.60;3.20;;;;;;;14.61;100.00;99716.38;104398;1273;69678;-59
2023/05/01 05:55:49;;;;;;;6.90;2.90;;;;;;;14.57;100.00;99718.54;104578;1273;76022;-64
2023/05/01 05:58:18;;;;;;;5.00;2.60;;;;;;;14.54;100.00;99725.23;104721;1271;64381;-62
2023/05/01 06:00:47;;;;;;;5.50;3.10;;;;;;;14.49;100.00;99730.61;104613;1266;61905;-59
2023/05/01 06:03:15;;;;;;;5.40;3.10;;;;;;;14.45;100.00;99733.42;105283;1270;76231;-59
2023/05/01 06:05:42;;;;;;;6.00;3.60;;;;;;;14.42;100.00;99738.73;104832;1267;70154;-58
2023/05/01 06:08:11;;;;;;;8.30;3.90;;;;;;;14.41;100.00;99737.92;104656;1270;74990;-59
2023/05/01 06:10:40;;;;;;;8.40;4.50;;;;;;;14.37;100.00;99745.23;104677;1267;64162;-60
2023/05/01 06:13:08;;;;;;;7.80;4.40;;;;;;;14.32;100.00;99749.76;104598;1266;63282;-60
2023/05/01 06:15:43;;;;;;;6.80;4.50;;;;;;;14.24;100.00;99754.81;104538;1267;75309;-62
2023/05/01 06:18:11;;;;;;;9.90;5.90;;;;;;;14.14;100.00;99759.85;104685;1273;69996;-61
2023/05/01 06:20:38;;;;;;;9.00;5.20;;;;;;;14.05;100.00;99762.60;104788;1267;75368;-60
2023/05/01 06:23:08;;;;;;;10.70;5.20;;;;;;;13.97;100.00;99765.30;104770;1267;63153;-60
2023/05/01 06:25:48;;;;;;;9.20;5.10;;;;;;;13.93;100.00;99766.07;104342;1276;62962;-61
2023/05/01 06:28:15;;;;;;;7.20;4.70;;;;;;;13.91;100.00;99766.81;104752;1270;76170;-60
2023/05/01 06:30:43;;;;;;;9.50;5.40;;;;;;;13.92;100.00;99774.42;104724;1270;69505;-60
2023/05/01 06:33:10;;;;;;;13.80;6.50;;;;;;;13.96;100.00;99779.21;104702;1278;74937;-60
2023/05/01 06:35:38;;;;;;;8.30;4.40;;;;;;;14.00;100.00;99784.02;104706;1267;64199;-61
2023/05/01 06:38:06;;;;;;;6.50;3.90;;;;;;;14.02;100.00;99780.33;104540;1273;61563;-60
2023/05/01 06:40:34;;;;;;;5.70;3.50;;;;;;;14.04;100.00;99785.59;104563;1265;76657;-60
2023/05/01 06:43:02;;;;;;;5.50;3.40;;;;;;;14.05;100.00;99785.98;104630;1273;68513;-60
2023/05/01 06:45:29;;;;;;;6.10;3.30;;;;;;;14.03;100.00;99788.91;104881;1270;75455;-65
2023/05/01 06:47:56;;;;;;;5.60;3.10;;;;;;;14.01;100.00;99786.70;104555;1270;63251;-60
2023/05/01 06:50:23;;;;;;;6.10;3.40;;;;;;;14.02;100.00;99787.15;104952;1270;62731;-61
2023/05/01 06:52:51;;;;;;;5.60;3.50;;;;;;;14.05;100.00;99784.63;104724;1270;76304;-60
2023/05/01 06:55:18;;;;;;;5.00;3.00;;;;;;;14.13;100.00;99787.83;104678;1272;69631;-60
2023/05/01 06:57:45;;;;;;;4.40;2.60;;;;;;;14.33;100.00;99792.98;104601;1267;75246;-65
2023/05/01 07:00:13;;;;;;;4.00;2.60;;;;;;;14.67;100.00;99793.13;104801;1267;64463;-59
2023/05/01 07:02:41;;;;;;;6.50;3.00;;;;;;;15.16;100.00;99797.08;105007;1269;61538;-60
2023/05/01 07:05:08;;;;;;;5.10;2.80;;;;;;;15.72;100.00;99800.25;104738;1270;75332;-61
2023/05/01 07:07:35;;;;;;;4.10;2.90;;;;;;;16.35;100.00;99803.30;104984;1266;68576;-61
2023/05/01 07:10:08;;;;;;;3.90;2.60;;;;;;;17.09;100.00;99798.48;104648;1267;75321;-61
2023/05/01 07:12:35;;;;;;;6.20;3.30;;;;;;;17.83;100.00;99792.14;104829;1265;64234;-60
2023/05/01 07:15:03;;;;;;;4.10;3.00;;;;;;;18.43;100.00;99789.46;104660;1266;61479;-60
2023/05/01 07:17:30;;;;;;;4.60;3.20;;;;;;;18.82;100.00;99786.70;104939;1270;76395;-61
2023/05/01 07:19:57;;;;;;;4.80;3.20;;;;;;;19.04;100.00;99783.73;104693;1270;69610;-61
2023/05/01 07:22:25;;;;;;;4.70;3.00;;;;;;;19.11;100.00;99775.73;104724;1270;74150;-58
2023/05/01 07:24:52;;;;;;;4.20;2.90;;;;;;;19.08;100.00;99782.98;104823;1270;62351;-57
2023/05/01 07:27:20;;;;;;;5.00;2.80;;;;;;;18.90;100.00;99782.88;105136;1266;62901;-58
2023/05/01 07:29:49;;;;;;;4.20;2.70;;;;;;;18.68;100.00;99782.56;104411;1270;76048;-59
2023/05/01 07:32:16;;;;;;;4.20;2.80;;;;;;;18.69;100.00;99783.23;104636;1272;68457;-58
2023/05/01 07:34:43;;;;;;;3.30;2.20;;;;;;;18.92;100.00;99782.99;104832;1270;74990;-59
2023/05/01 07:37:11;;;;;;;6.60;3.20;;;;;;;19.22;100.00;99779.94;104650;1267;62819;-58
2023/05/01 07:39:38;;;;;;;4.20;3.00;;;;;;;19.54;100.00;99781.94;105144;1269;61590;-60
2023/05/01 07:42:05;;;;;;;3.60;2.30;;;;;;;19.74;100.00;99785.70;104902;1266;75017;-60
2023/05/01 07:44:32;;;;;;;7.00;2.90;;;;;;;19.51;100.00;99790.27;104958;1267;68721;-58
2023/05/01 07:47:04;;;;;;;3.50;2.30;;;;;;;19.18;100.00;99797.77;105031;1267;73988;-57
2023/05/01 07:49:37;;;;;;;4.10;2.30;;;;;;;18.88;100.00;99799.39;105141;1270;62540;-59
2023/05/01 07:52:07;;;;;;;4.10;2.30;;;;;;;18.56;100.00;99805.96;104602;1270;62730;-59
2023/05/01 07:54:34;;;;;;;4.70;2.20;;;;;;;18.28;100.00;99806.84;104878;1266;76382;-59
2023/05/01 07:57:03;;;;;;;3.20;2.20;;;;;;;17.99;100.00;99807.41;104891;1265;69526;-58
2023/05/01 07:59:30;;;;;;;4.20;2.20;;;;;;;17.74;100.00;99803.77;104788;1265;74891;-58
2023/05/01 08:01:57;;;;;;;4.00;2.30;;;;;;;17.62;100.00;99809.41;104861;1270;61637;-59
2023/05/01 08:04:24;;;;;;;6.20;2.90;;;;;;;17.64;100.00;99811.19;104613;1272;62600;-58
2023/05/01 08:06:51;;;;;;;3.90;2.30;;;;;;;17.77;100.00;99808.77;104945;1265;76677;-58
2023/05/01 08:09:19;;;;;;;4.00;2.40;;;;;;;17.89;100.00;99812.33;104757;1271;69543;-63
2023/05/01 08:11:46;;;;;;;6.10;2.50;;;;;;;17.97;100.00;99815.20;104991;1266;75357;-62
2023/05/01 08:14:16;;;;;;;3.60;2.30;;;;;;;17.99;100.00;99818.02;104469;1268;61688;-59
2023/05/01 08:16:43;;;;;;;3.60;2.30;;;;;;;18.03;100.00;99819.91;104712;1274;62259;-59
2023/05/01 08:19:10;;;;;;;3.20;2.10;;;;;;;18.04;100.00;99822.45;104683;1271;75154;-59
2023/05/01 08:21:38;;;;;;;3.10;1.90;;;;;;;18.02;100.00;99825.02;104526;1270;68499;-59
2023/05/01 08:24:07;;;;;;;2.70;1.70;;;;;;;18.03;100.00;99823.02;104987;1265;74959;-64
2023/05/01 08:26:34;;;;;;;3.70;2.10;;;;;;;18.11;100.00;99823.92;104769;1273;64826;-60
2023/05/01 08:29:01;;;;;;;3.40;2.20;;;;;;;18.18;100.00;99824.61;104478;1265;61768;-59
2023/05/01 08:31:29;;;;;;;3.80;1.70;;;;;;;18.27;100.00;99827.10;104941;1267;75239;-63
2023/05/01 08:33:56;;;;;;;3.80;2.20;;;;;;;18.41;100.00;99834.08;104813;1265;70030;-58
2023/05/01 08:36:23;;;;;;;3.90;1.90;;;;;;;18.54;100.00;99836.56;104599;1267;75041;-59
2023/05/01 08:38:51;;;;;;;3.10;2.20;;;;;;;18.68;100.00;99840.34;104453;1267;63227;-59
2023/05/01 08:41:20;;;;;;;3.60;1.80;;;;;;;18.76;100.00;99845.94;104769;1267;62870;-59
2023/05/01 08:43:47;;;;;;;2.30;1.30;;;;;;;18.81;100.00;99844.89;104643;1267;76572;-59
2023/05/01 08:46:23;;;;;;;2.90;1.60;;;;;;;18.84;100.00;99846.35;104654;1265;69662;-59
2023/05/01 08:48:51;;;;;;;3.20;2.10;;;;;;;18.88;100.00;99843.16;104700;1270;75125;-59
2023/05/01 08:51:21;;;;;;;2.80;1.90;;;;;;;18.89;100.00;99844.45;104610;1265;63402;-59
2023/05/01 08:53:51;;;;;;;2.80;1.70;;;;;;;18.91;100.00;99842.05;104466;1267;61544;-60
2023/05/01 08:56:20;;;;;;;3.20;1.70;;;;;;;18.98;100.00;99841.16;104629;1267;76198;-59
2023/05/01 08:58:47;;;;;;;2.60;1.70;;;;;;;19.07;100.00;99843.95;104793;1267;69668;-60
2023/05/01 09:01:15;;;;;;;3.50;1.90;;;;;;;19.18;100.00;99843.01;104697;1265;75040;-59
2023/05/01 09:03:43;;;;;;;3.20;1.80;;;;;;;19.25;100.00;99842.64;104913;1265;63023;-63
2023/05/01 09:06:10;;;;;;;3.20;2.00;;;;;;;19.29;100.00;99841.37;104651;1268;62201;-58
2023/05/01 09:08:38;;;;;;;2.90;1.70;;;;;;;19.32;100.00;99844.55;105039;1265;76257;-59
2023/05/01 09:11:05;;;;;;;3.10;2.10;;;;;;;19.33;100.00;99844.73;104667;1265;68770;-58
2023/05/01 09:13:32;;;;;;;3.40;2.00;;;;;;;19.35;100.00;99845.75;104270;1265;74201;-59
2023/05/01 09:15:59;;;;;;;3.40;2.30;;;;;;;19.41;100.00;99846.55;104737;1270;61826;-60
2023/05/01 09:18:27;;;;;;;3.10;1.80;;;;;;;19.46;100.00;99843.84;104580;1270;62811;-60
2023/05/01 09:20:55;;;;;;;3.70;2.20;;;;;;;19.48;100.00;99842.73;104990;1265;76586;-59
2023/05/01 09:23:22;;;;;;;3.00;2.10;;;;;;;19.46;100.00;99842.30;104615;1266;69325;-59
2023/05/01 09:25:49;;;;;;;3.40;2.30;;;;;;;19.44;100.00;99846.25;104635;1270;74951;-58
2023/05/01 09:28:17;;;;;;;2.60;2.00;;;;;;;19.57;100.00;99843.94;104797;1267;61836;-60
2023/05/01 09:30:45;;;;;;;3.40;2.20;;;;;;;19.78;100.00;99843.33;104563;1265;62808;-60
2023/05/01 09:33:13;;;;;;;3.50;2.30;;;;;;;20.05;100.00;99849.60;104651;1270;76383;-60
2023/05/01 09:35:51;;;;;;;4.50;2.50;;;;;;;20.34;100.00;99848.39;104684;1265;69611;-59
2023/05/01 09:38:22;;;;;;;3.10;1.70;;;;;;;20.60;100.00;99850.32;104655;1265;75249;-60
2023/05/01 09:40:50;;;;;;;3.40;1.70;;;;;;;20.81;100.00;99850.09;104270;1273;62366;-59
2023/05/01 09:43:27;;;;;;;3.80;1.60;;;;;;;21.10;100.00;99851.59;104588;1272;61585;-59
2023/05/01 09:46:08;;;;;;;2.70;1.90;;;;;;;21.51;100.00;99852.83;104671;1271;76784;-64
2023/05/01 09:48:36;;;;;;;2.70;1.70;;;;;;;21.86;100.00;99847.04;104794;1270;69641;-59
2023/05/01 09:51:19;;;;;;;3.20;2.00;;;;;;;22.13;100.00;99852.30;104657;1265;75283;-59
2023/05/01 09:53:46;;;;;;;2.60;1.50;;;;;;;22.38;100.00;99854.21;104751;1270;63573;-59
2023/05/01 09:56:14;;;;;;;2.30;1.80;;;;;;;22.59;100.00;99854.09;104781;1265;62834;-60
2023/05/01 09:58:41;;;;;;;1.90;1.10;;;;;;;22.79;100.00;99862.39;104669;1265;75219;-59
2023/05/01 10:01:08;;;;;;;2.90;1.80;;;;;;;22.90;100.00;99860.75;104749;1270;70048;-59
2023/05/01 10:03:36;;;;;;;3.00;1.70;;;;;;;22.87;100.00;99859.48;104837;1267;74647;-63
2023/05/01 10:06:03;;;;;;;3.20;2.10;;;;;;;22.86;100.00;99862.26;104942;1270;63177;-62
2023/05/01 10:16:27;;;;;;;3.10;1.30;;;;;;;22.83;100.00;99866.62;102289;1294;599672;-59
2023/05/01 10:18:58;;;;;;;2.20;1.50;;;;;;;22.88;100.00;99871.48;104546;1273;62757;-59
2023/05/01 10:21:28;;;;;;;2.80;1.40;;;;;;;22.94;100.00;99871.16;104775;1267;62851;-63
2023/05/01 10:23:55;;;;;;;2.00;1.30;;;;;;;22.93;100.00;99872.07;104792;1279;74541;-59
2023/05/01 10:26:25;;;;;;;2.00;1.40;;;;;;;22.82;100.00;99874.07;104992;1266;69533;-59
2023/05/01 10:28:52;;;;;;;2.20;1.40;;;;;;;22.65;100.00;99883.50;104779;1270;262863;-59
2023/05/01 10:31:19;;;;;;;3.30;1.40;;;;;;;22.46;100.00;99882.66;104852;1270;61980;-59
2023/05/01 10:33:47;;;;;;;2.00;1.30;;;;;;;22.25;100.00;99884.83;104891;1264;62437;-59
2023/05/01 10:36:39;;;;;;;2.60;1.40;;;;;;;21.98;100.00;99887.98;105239;1257;74431;-59
2023/05/01 10:39:06;;;;;;;2.70;1.70;;;;;;;21.65;100.00;99889.80;105336;1260;69431;-59
2023/05/01 10:42:04;;;;;;;1.90;1.40;;;;;;;21.36;100.00;99895.06;105169;1270;75205;-59
2023/05/01 10:44:33;;;;;;;2.30;1.50;;;;;;;20.90;100.00;99895.58;105886;1254;61632;-63
2023/05/01 10:47:41;;;;;;;3.80;1.70;;;;;;;20.45;100.00;99899.75;105461;1257;63594;-59
2023/05/01 10:50:14;;;;;;;2.90;1.90;;;;;;;19.92;100.00;99901.60;105719;1256;76011;-59
2023/05/01 10:53:16;;;;;;;3.60;1.70;;;;;;;19.52;100.00;99901.15;105627;1254;69809;-59
2023/05/01 10:55:45;;;;;;;8.10;1.80;;;;;;;19.14;100.00;99905.47;105676;1257;74119;-64
2023/05/01 10:58:13;;;;;;;2.60;1.70;;;;;;;18.76;100.00;99902.86;105826;1254;62769;-58
2023/05/01 11:00:40;;;;;;;3.60;1.70;;;;;;;18.37;100.00;99901.27;105346;1259;61758;-58
2023/05/01 11:03:20;;;;;;;2.10;1.10;;;;;;;18.03;100.00;99906.20;105737;1252;75234;-58
2023/05/01 11:05:59;;;;;;;2.40;1.50;;;;;;;17.73;100.00;99910.30;105591;1257;68259;-58
2023/05/01 11:08:34;;;;;;;2.40;1.30;;;;;;;17.51;100.00;99911.44;105466;1254;75270;-58
2023/05/01 11:11:22;;;;;;;3.90;1.80;;;;;;;17.40;100.00;99912.14;105797;1253;63349;-59
2023/05/01 11:14:07;;;;;;;4.30;2.00;;;;;;;17.35;100.00;99911.46;105836;1253;61682;-58
2023/05/01 11:16:44;;;;;;;2.50;1.50;;;;;;;17.40;100.00;99912.77;105720;1254;74217;-60
2023/05/01 11:19:21;;;;;;;2.70;1.50;;;;;;;17.67;100.00;99911.25;105426;1257;68665;-59
2023/05/01 11:21:49;;;;;;;2.90;1.30;;;;;;;17.97;100.00;99913.82;105781;1254;74164;-58
2023/05/01 11:24:17;;;;;;;4.80;1.60;;;;;;;18.14;100.00;99910.91;106259;1252;62387;-60
2023/05/01 11:26:46;;;;;;;2.20;1.50;;;;;;;18.20;100.00;99909.31;105822;1253;62839;-59
2023/05/01 11:29:13;;;;;;;2.40;1.50;;;;;;;18.06;100.00;99910.48;105741;1257;75500;-59
2023/05/01 11:31:40;;;;;;;2.80;1.10;;;;;;;17.93;100.00;99907.64;105710;1257;68302;-58
2023/05/01 11:34:07;;;;;;;2.30;1.40;;;;;;;17.78;100.00;99915.13;105739;1257;73991;-58
2023/05/01 11:36:50;;;;;;;2.40;1.40;;;;;;;17.57;100.00;99917.14;105883;1253;61748;-61